createdAt,value
2023-03-17T00:00:21.627Z,-1.23
2023-03-17T00:02:50.738Z,-1.23
2023-03-17T00:05:22.567Z,-1.23
2023-03-17T00:07:51.604Z,-1.26
2023-03-17T00:10:21.199Z,-1.26
2023-03-17T00:12:49.941Z,-1.28
2023-03-17T00:15:18.033Z,-1.31
2023-03-17T00:17:46.333Z,-1.28
2023-03-17T00:20:17.692Z,-1.29
2023-03-17T00:22:46.802Z,-1.27
2023-03-17T00:25:19.180Z,-1.27
2023-03-17T00:27:46.815Z,-1.26
2023-03-17T00:30:14.897Z,-1.26
2023-03-17T00:32:42.935Z,-1.27
2023-03-17T00:35:17.944Z,-1.32
2023-03-17T00:37:47.392Z,-1.31
2023-03-17T00:40:19.182Z,-1.32
2023-03-17T00:42:46.949Z,-1.31
2023-03-17T00:45:15.796Z,-1.31
2023-03-17T00:47:43.952Z,-1.32
2023-03-17T00:50:18.769Z,-1.31
2023-03-17T00:52:47.839Z,-1.29
2023-03-17T00:55:15.567Z,-1.27
2023-03-17T00:57:43.723Z,-1.27
2023-03-17T01:00:22.992Z,-1.26
2023-03-17T01:02:50.803Z,-1.30
2023-03-17T01:05:18.600Z,-1.32
2023-03-17T01:07:52.939Z,-1.33
2023-03-17T01:10:22.557Z,-1.30
2023-03-17T01:12:51.091Z,-1.29
2023-03-17T01:15:19.736Z,-1.30
2023-03-17T01:17:47.622Z,-1.33
2023-03-17T01:20:17.848Z,-1.36
2023-03-17T01:22:45.580Z,-1.31
2023-03-17T01:25:15.130Z,-1.19
2023-03-17T01:27:47.000Z,-1.20
2023-03-17T01:30:22.560Z,-1.23
2023-03-17T01:32:51.070Z,-1.25
2023-03-17T01:35:19.924Z,-1.25
2023-03-17T01:37:47.605Z,-1.19
2023-03-17T01:40:18.395Z,-1.15
2023-03-17T01:42:49.208Z,-1.15
2023-03-17T01:45:35.245Z,-1.16
2023-03-17T01:48:03.233Z,-1.13
2023-03-17T01:50:31.875Z,-1.15
2023-03-17T01:52:59.709Z,-1.14
2023-03-17T01:55:30.357Z,-1.15
2023-03-17T01:57:58.606Z,-1.15
2023-03-17T02:00:26.665Z,-1.17
2023-03-17T02:02:55.774Z,-1.20
2023-03-17T02:05:25.992Z,-1.23
2023-03-17T02:07:53.866Z,-1.22
2023-03-17T02:10:23.040Z,-1.22
2023-03-17T02:12:54.249Z,-1.23
2023-03-17T02:15:21.962Z,-1.25
2023-03-17T02:17:49.739Z,-1.26
2023-03-17T02:20:36.065Z,-1.24
2023-03-17T02:23:06.471Z,-1.22
2023-03-17T02:25:35.517Z,-1.20
2023-03-17T02:28:08.352Z,-1.25
2023-03-17T02:30:36.541Z,-1.33
2023-03-17T02:33:04.324Z,-1.37
2023-03-17T02:35:32.064Z,-1.40
2023-03-17T02:37:59.865Z,-1.41
2023-03-17T02:40:29.192Z,-1.42
2023-03-17T02:42:57.500Z,-1.43
2023-03-17T02:45:25.319Z,-1.46
2023-03-17T02:47:55.258Z,-1.51
2023-03-17T02:50:24.283Z,-1.52
2023-03-17T02:52:52.243Z,-1.53
2023-03-17T02:55:20.382Z,-1.53
2023-03-17T02:57:49.479Z,-1.54
2023-03-17T03:00:17.494Z,-1.58
2023-03-17T03:02:45.419Z,-1.58
2023-03-17T03:05:13.082Z,-1.57
2023-03-17T03:07:40.765Z,-1.56
2023-03-17T03:10:09.353Z,-1.52
2023-03-17T03:12:37.809Z,-1.47
2023-03-17T03:15:07.441Z,-1.40
2023-03-17T03:17:35.312Z,-1.35
2023-03-17T03:20:03.072Z,-1.37
2023-03-17T03:22:30.742Z,-1.43
2023-03-17T03:24:58.530Z,-1.44
2023-03-17T03:27:26.657Z,-1.37
2023-03-17T03:29:54.287Z,-1.36
2023-03-17T03:32:23.387Z,-1.39
2023-03-17T03:34:51.226Z,-1.33
2023-03-17T03:37:19.014Z,-1.29
2023-03-17T03:39:47.740Z,-1.31
2023-03-17T03:42:16.400Z,-1.33
2023-03-17T03:44:44.112Z,-1.37
2023-03-17T03:47:11.920Z,-1.36
2023-03-17T03:49:41.097Z,-1.38
2023-03-17T03:52:08.933Z,-1.37
2023-03-17T03:54:36.673Z,-1.35
2023-03-17T03:57:04.742Z,-1.35
2023-03-17T03:59:32.580Z,-1.31
2023-03-17T04:02:00.309Z,-1.29
2023-03-17T04:04:28.048Z,-1.23
2023-03-17T04:06:57.104Z,-1.22
2023-03-17T04:09:24.823Z,-1.21
2023-03-17T04:11:52.476Z,-1.17
2023-03-17T04:14:20.133Z,-1.14
2023-03-17T04:16:47.837Z,-1.09
2023-03-17T04:19:15.798Z,-1.04
2023-03-17T04:21:43.508Z,-1.04
2023-03-17T04:24:12.563Z,-1.00
2023-03-17T04:26:42.625Z,-0.97
2023-03-17T04:29:15.521Z,-0.93
2023-03-17T04:31:43.259Z,-0.95
2023-03-17T04:34:14.418Z,-0.93
2023-03-17T04:36:42.520Z,-0.95
2023-03-17T04:39:10.400Z,-0.94
2023-03-17T04:41:39.678Z,-0.94
2023-03-17T04:44:07.600Z,-0.89
2023-03-17T04:46:35.624Z,-0.89
2023-03-17T04:49:03.368Z,-0.88
2023-03-17T04:51:31.252Z,-0.86
2023-03-17T04:53:58.921Z,-0.91
2023-03-17T04:56:26.667Z,-0.91
2023-03-17T04:58:55.740Z,-0.91
2023-03-17T05:01:23.512Z,-0.90
2023-03-17T05:03:51.630Z,-0.88
2023-03-17T05:06:19.244Z,-0.87
2023-03-17T05:08:49.377Z,-0.87
2023-03-17T05:11:17.302Z,-0.84
2023-03-17T05:13:44.981Z,-0.81
2023-03-17T05:16:14.078Z,-0.74
2023-03-17T05:18:41.980Z,-0.73
2023-03-17T05:21:09.651Z,-0.72
2023-03-17T05:23:37.315Z,-0.67
2023-03-17T05:26:05.311Z,-0.65
2023-03-17T05:28:33.026Z,-0.61
2023-03-17T05:31:00.752Z,-0.56
2023-03-17T05:33:29.931Z,-0.54
2023-03-17T05:35:57.823Z,-0.45
2023-03-17T05:38:25.832Z,-0.41
2023-03-17T05:40:53.786Z,-0.31
2023-03-17T05:43:21.529Z,-0.25
2023-03-17T05:45:50.610Z,-0.18
2023-03-17T05:48:18.386Z,-0.14
2023-03-17T05:50:47.451Z,-0.11
2023-03-17T05:53:15.681Z,-0.10
2023-03-17T05:55:43.369Z,-0.04
2023-03-17T05:58:11.163Z,-0.01
2023-03-17T06:00:38.931Z,0.01
2023-03-17T06:03:07.837Z,0.08
2023-03-17T06:05:35.798Z,0.07
2023-03-17T06:08:05.742Z,0.10
2023-03-17T06:10:33.874Z,0.10
2023-03-17T06:13:03.780Z,0.13
2023-03-17T06:15:32.895Z,0.16
2023-03-17T06:18:00.791Z,0.20
2023-03-17T06:20:28.445Z,0.24
2023-03-17T06:23:04.338Z,0.31
2023-03-17T06:25:34.585Z,0.34
2023-03-17T06:28:04.024Z,0.39
2023-03-17T06:30:32.866Z,0.45
2023-03-17T06:33:01.236Z,0.48
2023-03-17T06:35:29.448Z,0.54
2023-03-17T06:37:58.013Z,0.58
2023-03-17T06:40:25.940Z,0.61
2023-03-17T06:42:54.969Z,0.63
2023-03-17T06:45:22.590Z,0.69
2023-03-17T06:47:50.217Z,0.72
2023-03-17T06:50:17.972Z,0.74
2023-03-17T06:52:46.890Z,0.80
2023-03-17T06:55:15.216Z,0.86
2023-03-17T06:57:43.363Z,0.89
2023-03-17T07:00:14.193Z,0.93
2023-03-17T07:02:42.336Z,0.97
2023-03-17T07:05:10.258Z,0.99
2023-03-17T07:07:38.797Z,1.01
2023-03-17T07:10:07.161Z,1.02
2023-03-17T07:12:34.825Z,1.01
2023-03-17T07:15:02.563Z,1.05
2023-03-17T07:17:31.624Z,1.07
2023-03-17T07:19:59.642Z,1.08
2023-03-17T07:22:27.382Z,1.10
2023-03-17T07:24:55.263Z,1.14
2023-03-17T07:27:25.306Z,1.17
2023-03-17T07:29:53.130Z,1.21
2023-03-17T07:32:20.894Z,1.23
2023-03-17T07:34:50.254Z,1.27
2023-03-17T07:37:18.011Z,1.31
2023-03-17T07:39:47.299Z,1.34
2023-03-17T07:42:15.880Z,1.36
2023-03-17T07:44:43.622Z,1.40
2023-03-17T07:47:11.923Z,1.43
2023-03-17T07:49:41.996Z,1.44
2023-03-17T07:52:12.719Z,1.47
2023-03-17T07:54:42.997Z,1.49
2023-03-17T07:57:11.034Z,1.53
2023-03-17T07:59:40.004Z,1.56
2023-03-17T08:02:07.841Z,1.62
2023-03-17T08:04:35.645Z,1.68
2023-03-17T08:07:03.439Z,1.73
2023-03-17T08:09:32.689Z,1.78
2023-03-17T08:12:00.402Z,1.85
2023-03-17T08:14:28.074Z,1.89
2023-03-17T08:16:55.893Z,1.96
2023-03-17T08:19:24.344Z,2.01
2023-03-17T08:21:52.084Z,2.08
2023-03-17T08:24:19.832Z,2.12
2023-03-17T08:26:50.257Z,2.16
2023-03-17T08:29:18.579Z,2.25
2023-03-17T08:31:46.849Z,2.31
2023-03-17T08:34:16.240Z,2.33
2023-03-17T08:36:44.044Z,2.40
2023-03-17T08:39:11.763Z,2.44
2023-03-17T08:41:39.786Z,2.48
2023-03-17T08:44:09.818Z,2.52
2023-03-17T08:46:37.838Z,2.53
2023-03-17T08:49:05.649Z,2.59
2023-03-17T08:51:34.377Z,2.65
2023-03-17T08:54:02.116Z,2.67
2023-03-17T08:56:29.878Z,2.68
2023-03-17T08:58:57.819Z,2.68
2023-03-17T09:01:27.778Z,2.78
2023-03-17T09:03:58.352Z,2.80
2023-03-17T09:06:26.465Z,2.86
2023-03-17T09:08:55.860Z,2.86
2023-03-17T09:11:26.829Z,2.86
2023-03-17T09:13:55.496Z,2.92
2023-03-17T09:16:24.402Z,2.96
2023-03-17T09:18:53.887Z,2.99
2023-03-17T09:21:22.253Z,3.01
2023-03-17T09:23:49.857Z,3.04
2023-03-17T09:26:17.581Z,3.08
2023-03-17T09:28:45.282Z,3.11
2023-03-17T09:31:13.459Z,3.12
2023-03-17T09:33:41.807Z,3.17
2023-03-17T09:36:11.365Z,3.17
2023-03-17T09:38:39.292Z,3.18
2023-03-17T09:41:19.774Z,3.21
2023-03-17T09:43:54.564Z,3.23
2023-03-17T09:46:30.827Z,3.27
2023-03-17T09:49:01.114Z,3.31
2023-03-17T09:51:31.210Z,3.33
2023-03-17T09:54:00.631Z,3.35
2023-03-17T09:56:28.787Z,3.37
2023-03-17T09:58:58.659Z,3.36
2023-03-17T10:01:26.785Z,3.39
2023-03-17T10:03:54.501Z,3.43
2023-03-17T10:06:33.633Z,3.49
2023-03-17T10:09:06.503Z,3.54
2023-03-17T10:11:38.844Z,3.61
2023-03-17T10:14:12.996Z,3.62
2023-03-17T10:16:43.738Z,3.60
2023-03-17T10:19:15.313Z,3.62
2023-03-17T10:21:45.988Z,3.62
2023-03-17T10:24:15.420Z,3.64
2023-03-17T10:26:45.508Z,3.67
2023-03-17T10:29:15.043Z,3.68
2023-03-17T10:31:42.798Z,3.70
2023-03-17T10:34:14.336Z,3.72
2023-03-17T10:36:44.477Z,3.76
2023-03-17T10:39:14.276Z,3.78
2023-03-17T10:41:54.542Z,3.80
2023-03-17T10:44:31.237Z,3.88
2023-03-17T10:46:58.868Z,3.94
2023-03-17T10:49:27.684Z,4.01
2023-03-17T10:51:55.957Z,4.07
2023-03-17T10:54:25.284Z,4.09
2023-03-17T10:57:01.289Z,4.09
2023-03-17T11:02:00.198Z,4.09
2023-03-17T11:04:29.704Z,4.09
2023-03-17T11:06:58.424Z,4.06
2023-03-17T11:09:26.378Z,4.09
2023-03-17T11:12:02.780Z,4.07
2023-03-17T11:14:30.450Z,4.10
2023-03-17T11:16:59.281Z,4.14
2023-03-17T11:19:31.858Z,4.13
2023-03-17T11:22:04.985Z,4.13
2023-03-17T11:24:34.084Z,4.17
2023-03-17T11:27:08.658Z,4.19
2023-03-17T11:29:43.323Z,4.14
2023-03-17T11:32:20.919Z,4.10
2023-03-17T11:34:59.136Z,4.07
2023-03-17T11:37:34.651Z,4.04
2023-03-17T11:40:07.752Z,4.04
2023-03-17T11:42:41.429Z,4.05
2023-03-17T11:45:22.463Z,4.13
2023-03-17T11:47:57.334Z,4.17
2023-03-17T11:50:30.600Z,4.08
2023-03-17T11:53:12.127Z,4.05
2023-03-17T11:55:44.640Z,4.05
2023-03-17T11:58:15.427Z,4.07
2023-03-17T12:00:46.756Z,4.07
2023-03-17T12:03:18.646Z,4.06
2023-03-17T12:05:47.288Z,4.04
2023-03-17T12:08:20.645Z,4.00
2023-03-17T12:10:51.779Z,3.98
2023-03-17T12:13:24.009Z,3.94
2023-03-17T12:15:54.072Z,3.93
2023-03-17T12:18:25.269Z,3.89
2023-03-17T12:20:56.746Z,3.89
2023-03-17T12:23:30.175Z,3.90
2023-03-17T12:26:03.844Z,3.91
2023-03-17T12:28:35.905Z,3.97
2023-03-17T12:31:06.866Z,4.00
2023-03-17T12:33:37.971Z,4.06
2023-03-17T12:36:06.882Z,4.13
2023-03-17T12:38:37.191Z,4.09
2023-03-17T12:41:37.857Z,4.02
2023-03-17T12:44:16.949Z,3.98
2023-03-17T12:46:50.703Z,3.96
2023-03-17T12:49:32.996Z,3.97
2023-03-17T12:52:10.249Z,3.99
2023-03-17T12:54:39.495Z,4.00
2023-03-17T12:57:11.725Z,4.01
2023-03-17T12:59:42.793Z,4.04
2023-03-17T13:02:16.301Z,4.08
2023-03-17T13:04:50.432Z,4.08
2023-03-17T13:07:20.532Z,4.06
2023-03-17T13:09:49.845Z,4.03
2023-03-17T13:12:37.188Z,3.95
2023-03-17T13:15:22.679Z,3.94
2023-03-17T13:17:50.762Z,3.91
2023-03-17T13:20:19.352Z,3.89
2023-03-17T13:23:02.364Z,3.87
2023-03-17T13:25:34.485Z,3.90
2023-03-17T13:28:17.621Z,3.91
2023-03-17T13:30:55.526Z,3.93
2023-03-17T13:33:27.209Z,3.94
2023-03-17T13:36:10.186Z,3.97
2023-03-17T13:39:17.791Z,4.00
2023-03-17T13:41:52.788Z,4.00
2023-03-17T13:44:38.527Z,4.04
2023-03-17T13:47:28.390Z,4.06
2023-03-17T13:49:58.919Z,4.06
2023-03-17T13:52:29.074Z,4.02
2023-03-17T13:55:02.215Z,4.00
2023-03-17T13:57:30.732Z,3.98
2023-03-17T14:00:02.920Z,3.94
2023-03-17T14:02:35.117Z,3.94
2023-03-17T14:05:04.669Z,3.95
2023-03-17T14:07:38.147Z,3.94
2023-03-17T14:10:08.081Z,3.91
2023-03-17T14:12:41.260Z,3.89
2023-03-17T14:15:13.327Z,3.88
2023-03-17T14:17:45.667Z,3.87
2023-03-17T14:20:21.686Z,3.84
2023-03-17T14:22:50.213Z,3.81
2023-03-17T14:25:18.635Z,3.75
2023-03-17T14:27:48.702Z,3.78
2023-03-17T14:30:20.784Z,3.75
2023-03-17T14:32:51.845Z,3.76
2023-03-17T14:35:19.593Z,3.76
2023-03-17T14:37:47.306Z,3.75
2023-03-17T14:40:20.726Z,3.70
2023-03-17T14:42:48.488Z,3.70
2023-03-17T14:45:21.282Z,3.73
2023-03-17T14:47:51.011Z,3.76
2023-03-17T14:50:20.652Z,3.75
2023-03-17T14:52:50.474Z,3.78
2023-03-17T14:55:19.801Z,3.77
2023-03-17T14:57:50.040Z,3.80
2023-03-17T15:00:28.803Z,3.82
2023-03-17T15:02:58.298Z,3.78
2023-03-17T15:05:27.654Z,3.74
2023-03-17T15:07:55.414Z,3.69
2023-03-17T15:10:24.490Z,3.68
2023-03-17T15:13:01.289Z,3.71
2023-03-17T15:15:32.448Z,3.61
2023-03-17T15:18:04.136Z,3.63
2023-03-17T15:20:35.291Z,3.61
2023-03-17T15:23:04.790Z,3.60
2023-03-17T15:25:35.295Z,3.56
2023-03-17T15:28:03.492Z,3.52
2023-03-17T15:30:44.286Z,3.51
2023-03-17T15:33:18.745Z,3.53
2023-03-17T15:35:46.597Z,3.46
2023-03-17T15:38:14.323Z,3.45
2023-03-17T15:40:42.204Z,3.44
2023-03-17T15:43:10.493Z,3.40
2023-03-17T15:45:38.274Z,3.37
2023-03-17T15:48:07.184Z,3.39
2023-03-17T15:50:36.617Z,3.34
2023-03-17T15:53:04.233Z,3.31
2023-03-17T15:55:32.998Z,3.32
2023-03-17T15:58:01.047Z,3.31
2023-03-17T16:00:30.318Z,3.28
2023-03-17T16:03:00.167Z,3.30
2023-03-17T16:05:29.472Z,3.32
2023-03-17T16:07:58.498Z,3.29
2023-03-17T16:10:27.216Z,3.26
2023-03-17T16:12:55.565Z,3.23
2023-03-17T16:15:24.036Z,3.22
2023-03-17T16:17:53.552Z,3.19
2023-03-17T16:20:26.084Z,3.16
2023-03-17T16:22:54.162Z,3.12
2023-03-17T16:25:26.014Z,3.08
2023-03-17T16:27:54.735Z,3.00
2023-03-17T16:30:23.335Z,2.98
2023-03-17T16:32:51.415Z,2.95
2023-03-17T16:35:20.305Z,2.98
2023-03-17T16:37:48.103Z,2.97
2023-03-17T16:40:20.070Z,2.98
2023-03-17T16:42:49.502Z,3.02
2023-03-17T16:45:21.596Z,2.99
2023-03-17T16:47:49.337Z,3.02
2023-03-17T16:50:18.395Z,3.00
2023-03-17T16:52:46.066Z,3.02
2023-03-17T16:55:16.819Z,3.02
2023-03-17T16:57:46.259Z,3.02
2023-03-17T17:00:18.539Z,3.06
2023-03-17T17:02:47.957Z,3.11
2023-03-17T17:05:17.977Z,3.10
2023-03-17T17:07:45.773Z,3.13
2023-03-17T17:10:17.334Z,3.13
2023-03-17T17:12:45.394Z,3.12
2023-03-17T17:15:13.885Z,3.13
2023-03-17T17:17:44.455Z,3.14
2023-03-17T17:20:15.215Z,3.12
2023-03-17T17:22:43.140Z,3.11
2023-03-17T17:25:11.036Z,3.20
2023-03-17T17:27:39.229Z,3.18
2023-03-17T17:30:08.251Z,3.17
2023-03-17T17:32:36.471Z,3.16
2023-03-17T17:35:05.688Z,3.14
2023-03-17T17:37:33.408Z,3.18
2023-03-17T17:40:01.142Z,3.16
2023-03-17T17:42:28.848Z,3.18
2023-03-17T17:44:56.539Z,3.20
2023-03-17T17:47:24.202Z,3.23
2023-03-17T17:49:51.892Z,3.29
2023-03-17T17:52:20.959Z,3.28
2023-03-17T17:54:48.933Z,3.26
2023-03-17T17:57:16.968Z,3.26
2023-03-17T17:59:44.707Z,3.26
2023-03-17T18:02:13.250Z,3.25
2023-03-17T18:04:41.622Z,3.24
2023-03-17T18:07:09.754Z,3.22
2023-03-17T18:09:38.818Z,3.21
2023-03-17T18:12:06.732Z,3.21
2023-03-17T18:14:34.464Z,3.19
2023-03-17T18:17:02.139Z,3.17
2023-03-17T18:19:30.067Z,3.13
2023-03-17T18:21:57.715Z,3.13
2023-03-17T18:24:25.394Z,3.13
2023-03-17T18:26:54.431Z,3.12
2023-03-17T18:29:22.173Z,3.11
2023-03-17T18:31:51.156Z,3.10
2023-03-17T18:34:20.861Z,3.05
2023-03-17T18:36:48.989Z,3.03
2023-03-17T18:39:17.215Z,3.03
2023-03-17T18:41:45.800Z,3.00
2023-03-17T18:44:14.872Z,3.01
2023-03-17T18:46:42.746Z,2.98
2023-03-17T18:49:10.392Z,2.96
2023-03-17T18:51:38.040Z,2.98
2023-03-17T18:54:06.080Z,2.97
2023-03-17T18:56:33.890Z,3.00
2023-03-17T18:59:01.739Z,3.04
2023-03-17T19:01:33.397Z,3.09
2023-03-17T19:04:01.509Z,3.07
2023-03-17T19:06:29.184Z,3.16
2023-03-17T19:08:57.358Z,3.18
2023-03-17T19:11:26.086Z,3.17
2023-03-17T19:13:53.773Z,3.24
2023-03-17T19:16:21.715Z,3.27
2023-03-17T19:18:51.529Z,3.27
2023-03-17T19:21:19.859Z,3.30
2023-03-17T19:23:47.581Z,3.31
2023-03-17T19:26:15.262Z,3.33
2023-03-17T19:28:42.958Z,3.36
2023-03-17T19:31:10.905Z,3.35
2023-03-17T19:33:38.691Z,3.32
2023-03-17T19:36:09.412Z,3.32
2023-03-17T19:38:37.212Z,3.32
2023-03-17T19:41:05.259Z,3.32
2023-03-17T19:43:40.741Z,3.33
2023-03-17T19:46:09.638Z,3.32
2023-03-17T19:48:37.591Z,3.34
2023-03-17T19:51:05.589Z,3.33
2023-03-17T19:53:34.687Z,3.34
2023-03-17T19:56:02.287Z,3.35
2023-03-17T19:58:29.972Z,3.34
2023-03-17T20:00:57.691Z,3.34
2023-03-17T20:03:26.434Z,3.39
2023-03-17T20:05:54.373Z,3.41
2023-03-17T20:08:22.583Z,3.39
2023-03-17T20:10:55.263Z,3.37
2023-03-17T20:13:23.293Z,3.38
2023-03-17T20:15:51.564Z,3.38
2023-03-17T20:18:19.932Z,3.33
2023-03-17T20:20:50.017Z,3.37
2023-03-17T20:23:18.106Z,3.38
2023-03-17T20:25:45.877Z,3.39
2023-03-17T20:28:17.944Z,3.38
2023-03-17T20:30:46.322Z,3.38
2023-03-17T20:33:14.195Z,3.38
2023-03-17T20:35:43.103Z,3.40
2023-03-17T20:38:11.424Z,3.44
2023-03-17T20:40:39.288Z,3.43
2023-03-17T20:43:06.907Z,3.45
2023-03-17T20:45:36.993Z,3.45
2023-03-17T20:48:06.150Z,3.42
2023-03-17T20:50:34.444Z,3.40
2023-03-17T20:53:02.627Z,3.38
2023-03-17T20:55:30.822Z,3.37
2023-03-17T20:57:59.849Z,3.35
2023-03-17T21:00:27.848Z,3.33
2023-03-17T21:02:57.207Z,3.30
2023-03-17T21:05:27.004Z,3.26
2023-03-17T21:07:56.604Z,3.24
2023-03-17T21:10:24.440Z,3.23
2023-03-17T21:12:52.136Z,3.25
2023-03-17T21:15:19.862Z,3.20
2023-03-17T21:17:47.573Z,3.19
2023-03-17T21:20:16.985Z,3.18
2023-03-17T21:22:46.088Z,3.18
2023-03-17T21:25:13.841Z,3.15
2023-03-17T21:27:42.704Z,3.17
2023-03-17T21:30:12.401Z,3.22
2023-03-17T21:32:40.415Z,3.23
2023-03-17T21:35:08.912Z,3.24
2023-03-17T21:37:38.004Z,3.25
2023-03-17T21:40:07.254Z,3.26
2023-03-17T21:42:34.979Z,3.24
2023-03-17T21:45:02.658Z,3.23
2023-03-17T21:47:31.057Z,3.28
2023-03-17T21:49:59.013Z,3.29
2023-03-17T21:52:27.076Z,3.30
2023-03-17T21:54:56.119Z,3.29
2023-03-17T21:57:24.140Z,3.33
2023-03-17T21:59:51.915Z,3.36
2023-03-17T22:02:19.643Z,3.36
2023-03-17T22:04:48.705Z,3.36
2023-03-17T22:07:16.686Z,3.39
2023-03-17T22:09:44.949Z,3.39
2023-03-17T22:12:14.076Z,3.41
2023-03-17T22:14:41.795Z,3.41
2023-03-17T22:17:10.094Z,3.41
2023-03-17T22:19:37.835Z,3.40
2023-03-17T22:22:05.850Z,3.38
2023-03-17T22:24:36.388Z,3.37
2023-03-17T22:27:07.032Z,3.37
2023-03-17T22:29:36.785Z,3.36
2023-03-17T22:32:04.674Z,3.34
2023-03-17T22:34:32.424Z,3.32
2023-03-17T22:37:00.107Z,3.32
2023-03-17T22:39:28.934Z,3.30
2023-03-17T22:41:56.704Z,3.28
2023-03-17T22:44:24.378Z,3.27
2023-03-17T22:46:53.578Z,3.22
2023-03-17T22:49:21.932Z,3.17
2023-03-17T22:51:50.098Z,3.17
2023-03-17T22:54:18.739Z,3.15
2023-03-17T22:56:46.417Z,3.13
2023-03-17T22:59:14.142Z,3.16
2023-03-17T23:01:41.822Z,3.13
2023-03-17T23:04:10.921Z,3.10
2023-03-17T23:06:38.905Z,3.11
2023-03-17T23:09:06.566Z,3.12
2023-03-17T23:11:34.203Z,3.10
2023-03-17T23:14:01.924Z,3.13
2023-03-17T23:16:30.163Z,3.14
2023-03-17T23:18:57.925Z,3.17
2023-03-17T23:21:28.871Z,3.15
2023-03-17T23:23:56.561Z,3.17
2023-03-17T23:26:24.368Z,3.14
2023-03-17T23:28:52.673Z,3.10
2023-03-17T23:31:22.324Z,3.12
2023-03-17T23:33:50.501Z,3.15
2023-03-17T23:36:18.631Z,3.13
2023-03-17T23:38:48.646Z,3.16
2023-03-17T23:41:16.924Z,3.16
2023-03-17T23:43:44.947Z,3.18
2023-03-17T23:46:13.068Z,3.24
2023-03-17T23:48:42.652Z,3.23
2023-03-17T23:51:12.106Z,3.23
2023-03-17T23:53:40.655Z,3.26
2023-03-17T23:56:11.247Z,3.26
2023-03-17T23:58:38.919Z,3.26
